Terminal Aerodrome Forecast
Issued by NWS

Home | Current Version | Previous Version | Text Only | Print | Product List | Glossary On
Versions: 1 2 3 4 5 6 7 8 9 10 11 12 13 14
000
FTUS43 KPAH 211700
TAFCGI
TAF
KCGI 211720Z 2118/2218 35012G18KT P6SM SKC
     FM220000 35005KT P6SM SKC
     FM220400 34003KT P6SM SCT030
     FM221500 02007KT P6SM SCT035=

USA.gov is the U.S. government's official web portal to all federal, state and local government web resources and services.